Larry J. Hebert — WDF5953 — position and weather

sailwx.info

Track history (hours):
 
Tides and Currents Weather Stations Pressure Air Temp Water Temp Dewpoint Dewpoint Depression Visibility Wind Speed Wind Dir Waves Ship Positions

Larry J. Hebert

Owner: Gulf Coast Tugs, Inc., Larose, LA. More information available from US FCC via Universal Licensing System and Coast Guard Vessel Documentation Center.

Last reported at 2018-Jul-16 00:47 UTC. Time now 2018-Jul-18 02:54 UTC.
Position N 29°07' W 094°12'.

Length 28 m; draft 2.3 m.

Type: Tug. MMSI: 367469050.

Date/timePositionNaut miles runAvg speedWind from/ knotsBaromVisibWave heightAir tempDewpointWater temp
2018-Jul-16 00:47N 29°07' W 094°12'3 8.0
2018-Jul-16 00:28N 29°07' W 094°14'23 8.0
2018-Jul-15 21:36N 29°06' W 094°41'1 8.2
2018-Jul-15 21:29N 29°06' W 094°42'4 8.2
2018-Jul-15 21:01N 29°06' W 094°46'4 8.2
2018-Jul-15 20:31N 29°06' W 094°51'4 7.8
2018-Jul-15 20:00N 29°06' W 094°55'3 7.1
2018-Jul-15 19:31N 29°05' W 094°59'3 6.7
2018-Jul-15 19:00N 29°03' W 095°02'4 7.2
2018-Jul-15 18:31N 29°01' W 095°06'4 7.2
2018-Jul-15 18:01N 28°59' W 095°10'4 7.2
2018-Jul-15 17:31N 28°57' W 095°13'4 7.0
2018-Jul-15 16:59N 28°56' W 095°17'3 5.0
2018-Jul-15 16:24N 28°56' W 095°20'1 1.5
2018-Jul-15 15:59N 28°57' W 095°20'0 0.0
2018-Jul-15 15:30N 28°57' W 095°20'0 0.1
2018-Jul-15 15:01N 28°57' W 095°20'0 0.2
2018-Jul-15 14:31N 28°57' W 095°20'0 0.7
2018-Jul-15 14:00N 28°57' W 095°20'0 0.0
2018-Jul-15 13:30N 28°57' W 095°20'0 0.0
2018-Jul-15 12:57N 28°57' W 095°20'0 0.9
2018-Jul-15 12:30N 28°57' W 095°20'0 0.1
2018-Jul-15 12:00N 28°57' W 095°20'0 0.0
2018-Jul-15 11:30N 28°57' W 095°20'0 0.0
2018-Jul-15 11:00N 28°57' W 095°20'0 0.0
2018-Jul-15 10:29N 28°57' W 095°20'0 0.0
2018-Jul-15 10:00N 28°57' W 095°20'0 0.0
2018-Jul-15 09:30N 28°57' W 095°20'0 0.0
2018-Jul-15 09:00N 28°57' W 095°20'0 0.0
2018-Jul-15 08:30N 28°57' W 095°20'0 0.0
2018-Jul-15 08:00N 28°57' W 095°20'0 0.0
2018-Jul-15 07:31N 28°57' W 095°20'0 0.0
2018-Jul-15 07:00N 28°57' W 095°20'0 0.0
2018-Jul-15 06:31N 28°57' W 095°20'0 0.0
2018-Jul-15 06:00N 28°57' W 095°20'0 0.0
2018-Jul-15 05:30N 28°57' W 095°20'0 0.0
2018-Jul-15 05:00N 28°57' W 095°20'0 0.0
2018-Jul-15 04:30N 28°57' W 095°20'0 0.0
2018-Jul-15 04:00N 28°57' W 095°20'0 0.0
2018-Jul-15 03:30N 28°57' W 095°20'0 0.0
2018-Jul-15 03:00N 28°57' W 095°20'0 0.0
2018-Jul-15 02:30N 28°57' W 095°20'0 0.0
2018-Jul-15 02:00N 28°57' W 095°20'0 0.0
2018-Jul-15 01:31N 28°57' W 095°20'0 0.0
2018-Jul-15 01:00N 28°57' W 095°20'0 0.0
2018-Jul-15 00:30N 28°57' W 095°20'0 0.0
2018-Jul-15 00:00N 28°57' W 095°20'0 0.0
2018-Jul-14 23:31N 28°57' W 095°20'0 0.0
2018-Jul-14 23:00N 28°57' W 095°20'0 0.0
2018-Jul-14 22:30N 28°57' W 095°20'0 0.0
2018-Jul-14 22:00N 28°57' W 095°20'0 0.0
2018-Jul-14 21:30N 28°57' W 095°20'0 0.0
2018-Jul-14 21:01N 28°57' W 095°20'0 0.0
2018-Jul-14 20:29N 28°57' W 095°20'0 0.0
2018-Jul-14 20:00N 28°57' W 095°20'0 0.1
2018-Jul-14 19:30N 28°57' W 095°20'0 0.0
2018-Jul-14 19:00N 28°57' W 095°20'0 0.1
2018-Jul-14 18:30N 28°57' W 095°20'1 1.5
2018-Jul-14 18:00N 28°57' W 095°19'0 0.3
2018-Jul-14 16:39N 28°56' W 095°18'0 0.2
2018-Jul-14 16:31N 28°56' W 095°18'0 0.0
2018-Jul-14 15:50N 28°56' W 095°18'0 0.1
2018-Jul-14 15:30N 28°56' W 095°18'0 0.1
2018-Jul-14 15:00N 28°56' W 095°18'0 0.0
2018-Jul-14 14:31N 28°56' W 095°18'1 1.1
2018-Jul-14 13:30N 28°57' W 095°20'0 0.2
2018-Jul-14 13:00N 28°57' W 095°20'0 0.0
2018-Jul-14 12:30N 28°57' W 095°20'0 0.0
2018-Jul-14 12:00N 28°57' W 095°20'0 0.0
2018-Jul-14 11:30N 28°57' W 095°20'0 0.0
2018-Jul-14 10:58N 28°57' W 095°20'0 0.0
2018-Jul-14 10:31N 28°57' W 095°20'0 0.0
2018-Jul-14 10:00N 28°57' W 095°20'0 0.0
2018-Jul-14 09:30N 28°57' W 095°20'0 0.0
2018-Jul-14 08:58N 28°57' W 095°20'0 0.0
2018-Jul-14 08:30N 28°57' W 095°20'0 0.0
2018-Jul-14 08:00N 28°57' W 095°20'0 0.0
2018-Jul-14 07:30N 28°57' W 095°20'0 0.0
2018-Jul-14 07:00N 28°57' W 095°20'0 0.0
2018-Jul-14 06:30N 28°57' W 095°20'0 0.0
2018-Jul-14 06:00N 28°57' W 095°20'0 0.0
2018-Jul-14 05:28N 28°57' W 095°20'0 0.0
2018-Jul-14 05:00N 28°57' W 095°20'0 0.0
2018-Jul-14 04:27N 28°57' W 095°20'0 0.0
2018-Jul-14 04:00N 28°57' W 095°20'0 0.0
2018-Jul-14 03:30N 28°57' W 095°20'0 0.0
2018-Jul-14 02:47N 28°57' W 095°20'0 0.0
2018-Jul-14 02:26N 28°57' W 095°20'0 0.0
2018-Jul-14 02:00N 28°57' W 095°20'0 0.0
2018-Jul-14 01:28N 28°57' W 095°20'0 0.0
2018-Jul-14 00:59N 28°57' W 095°20'0 0.0
2018-Jul-14 00:30N 28°57' W 095°20'0 0.0
2018-Jul-14 00:00N 28°57' W 095°20'0 0.0
2018-Jul-13 23:29N 28°57' W 095°20'0 0.0
2018-Jul-13 23:00N 28°57' W 095°20'0 0.0
2018-Jul-13 22:29N 28°57' W 095°20'0 0.0
2018-Jul-13 21:58N 28°57' W 095°20'0 0.0
2018-Jul-13 21:30N 28°57' W 095°20'0 0.0
2018-Jul-13 21:00N 28°57' W 095°20'0 0.0
2018-Jul-13 20:29N 28°57' W 095°20'0 0.0
2018-Jul-13 20:00N 28°57' W 095°20'0 0.0
2018-Jul-13 19:30N 28°57' W 095°20'0 0.0
2018-Jul-13 18:58N 28°57' W 095°20'0 0.0
2018-Jul-13 18:30N 28°57' W 095°20'0 0.0
2018-Jul-13 18:00N 28°57' W 095°20'0 0.0
2018-Jul-13 17:29N 28°57' W 095°20'0 0.0
2018-Jul-13 16:58N 28°57' W 095°20'0 0.0
2018-Jul-13 16:29N 28°57' W 095°20'0 0.0
2018-Jul-13 16:00N 28°57' W 095°20'0 0.0
2018-Jul-13 15:30N 28°57' W 095°20'0 0.0
2018-Jul-13 14:58N 28°57' W 095°20'0 0.0
2018-Jul-13 13:55N 28°57' W 095°20'0 0.0
2018-Jul-13 13:30N 28°57' W 095°20'0 0.0
2018-Jul-13 13:00N 28°57' W 095°20'0 0.0
2018-Jul-13 12:30N 28°57' W 095°20'0 0.0
2018-Jul-13 12:00N 28°57' W 095°20'0 0.0
2018-Jul-13 11:30N 28°57' W 095°20'0 0.0
2018-Jul-13 11:00N 28°57' W 095°20'0 0.0
2018-Jul-13 10:30N 28°57' W 095°20'0 0.0
2018-Jul-13 10:00N 28°57' W 095°20'0 0.0
2018-Jul-13 09:28N 28°57' W 095°20'0 0.0
2018-Jul-13 09:00N 28°57' W 095°20'0 0.0
2018-Jul-13 08:29N 28°57' W 095°20'0 0.0
2018-Jul-13 08:00N 28°57' W 095°20'0 0.0
2018-Jul-13 07:29N 28°57' W 095°20'0 0.0
2018-Jul-13 07:00N 28°57' W 095°20'0 0.0
2018-Jul-13 06:30N 28°57' W 095°20'0 0.0
2018-Jul-13 05:57N 28°57' W 095°20'0 0.0
2018-Jul-13 05:30N 28°57' W 095°20'0 0.0
2018-Jul-13 04:57N 28°57' W 095°20'0 0.0
2018-Jul-13 04:29N 28°57' W 095°20'0 0.0
2018-Jul-13 02:26N 28°57' W 095°20'0 0.0
2018-Jul-13 02:00N 28°57' W 095°20'0 0.0
2018-Jul-13 01:20N 28°57' W 095°20'0 0.0
2018-Jul-13 00:59N 28°57' W 095°20'0 0.0
2018-Jul-13 00:26N 28°57' W 095°20'0 0.0
2018-Jul-12 23:25N 28°57' W 095°20'0 0.0
2018-Jul-12 23:00N 28°57' W 095°20'0 0.0
2018-Jul-12 22:11N 28°57' W 095°20'0 0.0
2018-Jul-12 21:57N 28°57' W 095°20'0 0.0
2018-Jul-12 21:16N 28°57' W 095°20'0 0.0
2018-Jul-12 20:57N 28°57' W 095°20'0 0.0
2018-Jul-12 20:30N 28°57' W 095°20'0 0.0
2018-Jul-12 20:00N 28°57' W 095°20'0 0.0
2018-Jul-12 19:29N 28°57' W 095°20'0 0.0
2018-Jul-12 18:59N 28°57' W 095°20'0 0.0
2018-Jul-12 18:30N 28°57' W 095°20'0 0.0
2018-Jul-12 17:54N 28°57' W 095°20'0 0.0
2018-Jul-12 17:30N 28°57' W 095°20'0 0.0
2018-Jul-12 17:00N 28°57' W 095°20'0 0.0
2018-Jul-12 12:26N 28°57' W 095°20'0 0.0
2018-Jul-12 11:33N 28°57' W 095°20'0 0.0
2018-Jul-12 11:28N 28°57' W 095°20'0 0.0
2018-Jul-12 11:00N 28°57' W 095°20'0 0.0
2018-Jul-12 10:30N 28°57' W 095°20'0 0.0
2018-Jul-11 12:08N 28°57' W 095°20'0 0.0
2018-Jul-11 11:54N 28°57' W 095°20'1 1.8
2018-Jul-11 11:28N 28°56' W 095°20'2 0.1
2018-Jul-10 22:01N 28°56' W 095°18'0 6.9
2018-Jul-10 21:59N 28°56' W 095°18'0 0.1
2018-Jul-10 19:24N 28°56' W 095°18'0 0.1
2018-Jul-10 17:25N 28°56' W 095°18'0 0.4
2018-Jul-10 16:59N 28°56' W 095°18'0 0.0
2018-Jul-10 14:50N 28°56' W 095°19'0 0.1
2018-Jul-10 13:23N 28°56' W 095°19'0 0.0
2018-Jul-10 13:00N 28°56' W 095°19'0 0.0
2018-Jul-10 12:23N 28°56' W 095°19'0 0.1
2018-Jul-10 11:26N 28°56' W 095°19'0 0.0
2018-Jul-10 10:58N 28°56' W 095°19'0 0.0
2018-Jul-10 09:34N 28°56' W 095°19'0 0.0
2018-Jul-10 09:26N 28°56' W 095°19'0 0.0
2018-Jul-10 06:01N 28°56' W 095°19'1 0.1
2018-Jul-09 22:26N 28°56' W 095°18'1 0.1
2018-Jul-09 17:42N 28°56' W 095°18'0 0.0
2018-Jul-09 15:19N 28°56' W 095°18'0 0.0
2018-Jul-09 14:34N 28°56' W 095°18'0 0.0
2018-Jul-09 14:30N 28°56' W 095°18'0 0.0
2018-Jul-09 08:06N 28°56' W 095°19'0 0.0
2018-Jul-09 07:41N 28°56' W 095°18'0 0.0
2018-Jul-08 23:10N 28°56' W 095°18'1 5.8
2018-Jul-08 22:56N 28°56' W 095°17'1 0.0
2018-Jul-07 21:54N 28°56' W 095°18'2 3.9
2018-Jul-07 21:25N 28°55' W 095°17'3 0.3
2018-Jul-07 10:48N 28°57' W 095°20'0 0.0
2018-Jul-06 15:37N 28°57' W 095°20'0 0.4
2018-Jul-06 15:30N 28°57' W 095°20'0 0.0
2018-Jul-06 15:00N 28°57' W 095°20'0 0.0
2018-Jul-06 14:30N 28°57' W 095°20'0 0.0
2018-Jul-06 14:00N 28°57' W 095°20'0 0.0
2018-Jul-06 13:30N 28°57' W 095°20'0 0.0
2018-Jul-06 13:00N 28°57' W 095°20'0 0.0
2018-Jul-06 12:30N 28°57' W 095°20'0 0.0
2018-Jul-06 12:00N 28°57' W 095°20'0 0.0
2018-Jul-06 11:30N 28°57' W 095°20'0 0.0
2018-Jul-06 11:00N 28°57' W 095°20'0 0.0
2018-Jul-06 10:30N 28°57' W 095°20'0 0.0
2018-Jul-06 10:00N 28°57' W 095°20'0 0.0
2018-Jul-06 09:30N 28°57' W 095°20'0 0.0
2018-Jul-06 09:00N 28°57' W 095°20'0 0.0
2018-Jul-06 08:30N 28°57' W 095°20'0 0.0
2018-Jul-06 08:00N 28°57' W 095°20'0 0.0
2018-Jul-06 07:30N 28°57' W 095°20'0 0.0
2018-Jul-06 07:00N 28°57' W 095°20'0 0.0
2018-Jul-06 06:30N 28°57' W 095°20'0 0.0
2018-Jul-06 06:00N 28°57' W 095°20'0 0.0
2018-Jul-06 05:30N 28°57' W 095°20'0 0.0
2018-Jul-06 05:00N 28°57' W 095°20'0 0.0
2018-Jul-06 04:30N 28°57' W 095°20'0 0.0
2018-Jul-06 04:00N 28°57' W 095°20'0 0.0
2018-Jul-06 03:30N 28°57' W 095°20'0 0.0
2018-Jul-06 03:00N 28°57' W 095°20'0 0.0
2018-Jul-06 02:30N 28°57' W 095°20'0 0.0
2018-Jul-06 02:00N 28°57' W 095°20'0 0.0
2018-Jul-06 01:29N 28°57' W 095°20'0 0.0
2018-Jul-06 00:59N 28°57' W 095°20'  
Track history (hours):
 
Tides and Currents Weather Stations Pressure Air Temp Water Temp Dewpoint Dewpoint Depression Visibility Wind Speed Wind Dir Waves Ship Positions

Larry J. Hebert

Owner: Gulf Coast Tugs, Inc., Larose, LA. More information available from US FCC via Universal Licensing System and Coast Guard Vessel Documentation Center.

Last reported at 2018-Jul-16 00:47 UTC. Time now 2018-Jul-18 02:54 UTC.
Position N 29°07' W 094°12'.

Length 28 m; draft 2.3 m.

Type: Tug. MMSI: 367469050.

Date/timePositionNaut miles runAvg speedWind from/ knotsBaromVisibWave heightAir tempDewpointWater temp
2018-Jul-16 00:47N 29°07' W 094°12'3 8.0
2018-Jul-16 00:28N 29°07' W 094°14'23 8.0
2018-Jul-15 21:36N 29°06' W 094°41'1 8.2
2018-Jul-15 21:29N 29°06' W 094°42'4 8.2
2018-Jul-15 21:01N 29°06' W 094°46'4 8.2
2018-Jul-15 20:31N 29°06' W 094°51'4 7.8
2018-Jul-15 20:00N 29°06' W 094°55'3 7.1
2018-Jul-15 19:31N 29°05' W 094°59'3 6.7
2018-Jul-15 19:00N 29°03' W 095°02'4 7.2
2018-Jul-15 18:31N 29°01' W 095°06'4 7.2
2018-Jul-15 18:01N 28°59' W 095°10'4 7.2
2018-Jul-15 17:31N 28°57' W 095°13'4 7.0
2018-Jul-15 16:59N 28°56' W 095°17'3 5.0
2018-Jul-15 16:24N 28°56' W 095°20'1 1.5
2018-Jul-15 15:59N 28°57' W 095°20'0 0.0
2018-Jul-15 15:30N 28°57' W 095°20'0 0.1
2018-Jul-15 15:01N 28°57' W 095°20'0 0.2
2018-Jul-15 14:31N 28°57' W 095°20'0 0.7
2018-Jul-15 14:00N 28°57' W 095°20'0 0.0
2018-Jul-15 13:30N 28°57' W 095°20'0 0.0
2018-Jul-15 12:57N 28°57' W 095°20'0 0.9
2018-Jul-15 12:30N 28°57' W 095°20'0 0.1
2018-Jul-15 12:00N 28°57' W 095°20'0 0.0
2018-Jul-15 11:30N 28°57' W 095°20'0 0.0
2018-Jul-15 11:00N 28°57' W 095°20'0 0.0
2018-Jul-15 10:29N 28°57' W 095°20'0 0.0
2018-Jul-15 10:00N 28°57' W 095°20'0 0.0
2018-Jul-15 09:30N 28°57' W 095°20'0 0.0
2018-Jul-15 09:00N 28°57' W 095°20'0 0.0
2018-Jul-15 08:30N 28°57' W 095°20'0 0.0
2018-Jul-15 08:00N 28°57' W 095°20'0 0.0
2018-Jul-15 07:31N 28°57' W 095°20'0 0.0
2018-Jul-15 07:00N 28°57' W 095°20'0 0.0
2018-Jul-15 06:31N 28°57' W 095°20'0 0.0
2018-Jul-15 06:00N 28°57' W 095°20'0 0.0
2018-Jul-15 05:30N 28°57' W 095°20'0 0.0
2018-Jul-15 05:00N 28°57' W 095°20'0 0.0
2018-Jul-15 04:30N 28°57' W 095°20'0 0.0
2018-Jul-15 04:00N 28°57' W 095°20'0 0.0
2018-Jul-15 03:30N 28°57' W 095°20'0 0.0
2018-Jul-15 03:00N 28°57' W 095°20'0 0.0
2018-Jul-15 02:30N 28°57' W 095°20'0 0.0
2018-Jul-15 02:00N 28°57' W 095°20'0 0.0
2018-Jul-15 01:31N 28°57' W 095°20'0 0.0
2018-Jul-15 01:00N 28°57' W 095°20'0 0.0
2018-Jul-15 00:30N 28°57' W 095°20'0 0.0
2018-Jul-15 00:00N 28°57' W 095°20'0 0.0
2018-Jul-14 23:31N 28°57' W 095°20'0 0.0
2018-Jul-14 23:00N 28°57' W 095°20'0 0.0
2018-Jul-14 22:30N 28°57' W 095°20'0 0.0
2018-Jul-14 22:00N 28°57' W 095°20'0 0.0
2018-Jul-14 21:30N 28°57' W 095°20'0 0.0
2018-Jul-14 21:01N 28°57' W 095°20'0 0.0
2018-Jul-14 20:29N 28°57' W 095°20'0 0.0
2018-Jul-14 20:00N 28°57' W 095°20'0 0.1
2018-Jul-14 19:30N 28°57' W 095°20'0 0.0
2018-Jul-14 19:00N 28°57' W 095°20'0 0.1
2018-Jul-14 18:30N 28°57' W 095°20'1 1.5
2018-Jul-14 18:00N 28°57' W 095°19'0 0.3
2018-Jul-14 16:39N 28°56' W 095°18'0 0.2
2018-Jul-14 16:31N 28°56' W 095°18'0 0.0
2018-Jul-14 15:50N 28°56' W 095°18'0 0.1
2018-Jul-14 15:30N 28°56' W 095°18'0 0.1
2018-Jul-14 15:00N 28°56' W 095°18'0 0.0
2018-Jul-14 14:31N 28°56' W 095°18'1 1.1
2018-Jul-14 13:30N 28°57' W 095°20'0 0.2
2018-Jul-14 13:00N 28°57' W 095°20'0 0.0
2018-Jul-14 12:30N 28°57' W 095°20'0 0.0
2018-Jul-14 12:00N 28°57' W 095°20'0 0.0
2018-Jul-14 11:30N 28°57' W 095°20'0 0.0
2018-Jul-14 10:58N 28°57' W 095°20'0 0.0
2018-Jul-14 10:31N 28°57' W 095°20'0 0.0
2018-Jul-14 10:00N 28°57' W 095°20'0 0.0
2018-Jul-14 09:30N 28°57' W 095°20'0 0.0
2018-Jul-14 08:58N 28°57' W 095°20'0 0.0
2018-Jul-14 08:30N 28°57' W 095°20'0 0.0
2018-Jul-14 08:00N 28°57' W 095°20'0 0.0
2018-Jul-14 07:30N 28°57' W 095°20'0 0.0
2018-Jul-14 07:00N 28°57' W 095°20'0 0.0
2018-Jul-14 06:30N 28°57' W 095°20'0 0.0
2018-Jul-14 06:00N 28°57' W 095°20'0 0.0
2018-Jul-14 05:28N 28°57' W 095°20'0 0.0
2018-Jul-14 05:00N 28°57' W 095°20'0 0.0
2018-Jul-14 04:27N 28°57' W 095°20'0 0.0
2018-Jul-14 04:00N 28°57' W 095°20'0 0.0
2018-Jul-14 03:30N 28°57' W 095°20'0 0.0
2018-Jul-14 02:47N 28°57' W 095°20'0 0.0
2018-Jul-14 02:26N 28°57' W 095°20'0 0.0
2018-Jul-14 02:00N 28°57' W 095°20'0 0.0
2018-Jul-14 01:28N 28°57' W 095°20'0 0.0
2018-Jul-14 00:59N 28°57' W 095°20'0 0.0
2018-Jul-14 00:30N 28°57' W 095°20'0 0.0
2018-Jul-14 00:00N 28°57' W 095°20'0 0.0
2018-Jul-13 23:29N 28°57' W 095°20'0 0.0
2018-Jul-13 23:00N 28°57' W 095°20'0 0.0
2018-Jul-13 22:29N 28°57' W 095°20'0 0.0
2018-Jul-13 21:58N 28°57' W 095°20'0 0.0
2018-Jul-13 21:30N 28°57' W 095°20'0 0.0
2018-Jul-13 21:00N 28°57' W 095°20'0 0.0
2018-Jul-13 20:29N 28°57' W 095°20'0 0.0
2018-Jul-13 20:00N 28°57' W 095°20'0 0.0
2018-Jul-13 19:30N 28°57' W 095°20'0 0.0
2018-Jul-13 18:58N 28°57' W 095°20'0 0.0
2018-Jul-13 18:30N 28°57' W 095°20'0 0.0
2018-Jul-13 18:00N 28°57' W 095°20'0 0.0
2018-Jul-13 17:29N 28°57' W 095°20'0 0.0
2018-Jul-13 16:58N 28°57' W 095°20'0 0.0
2018-Jul-13 16:29N 28°57' W 095°20'0 0.0
2018-Jul-13 16:00N 28°57' W 095°20'0 0.0
2018-Jul-13 15:30N 28°57' W 095°20'0 0.0
2018-Jul-13 14:58N 28°57' W 095°20'0 0.0
2018-Jul-13 13:55N 28°57' W 095°20'0 0.0
2018-Jul-13 13:30N 28°57' W 095°20'0 0.0
2018-Jul-13 13:00N 28°57' W 095°20'0 0.0
2018-Jul-13 12:30N 28°57' W 095°20'0 0.0
2018-Jul-13 12:00N 28°57' W 095°20'0 0.0
2018-Jul-13 11:30N 28°57' W 095°20'0 0.0
2018-Jul-13 11:00N 28°57' W 095°20'0 0.0
2018-Jul-13 10:30N 28°57' W 095°20'0 0.0
2018-Jul-13 10:00N 28°57' W 095°20'0 0.0
2018-Jul-13 09:28N 28°57' W 095°20'0 0.0
2018-Jul-13 09:00N 28°57' W 095°20'0 0.0
2018-Jul-13 08:29N 28°57' W 095°20'0 0.0
2018-Jul-13 08:00N 28°57' W 095°20'0 0.0
2018-Jul-13 07:29N 28°57' W 095°20'0 0.0
2018-Jul-13 07:00N 28°57' W 095°20'0 0.0
2018-Jul-13 06:30N 28°57' W 095°20'0 0.0
2018-Jul-13 05:57N 28°57' W 095°20'0 0.0
2018-Jul-13 05:30N 28°57' W 095°20'0 0.0
2018-Jul-13 04:57N 28°57' W 095°20'0 0.0
2018-Jul-13 04:29N 28°57' W 095°20'0 0.0
2018-Jul-13 02:26N 28°57' W 095°20'0 0.0
2018-Jul-13 02:00N 28°57' W 095°20'0 0.0
2018-Jul-13 01:20N 28°57' W 095°20'0 0.0
2018-Jul-13 00:59N 28°57' W 095°20'0 0.0
2018-Jul-13 00:26N 28°57' W 095°20'0 0.0
2018-Jul-12 23:25N 28°57' W 095°20'0 0.0
2018-Jul-12 23:00N 28°57' W 095°20'0 0.0
2018-Jul-12 22:11N 28°57' W 095°20'0 0.0
2018-Jul-12 21:57N 28°57' W 095°20'0 0.0
2018-Jul-12 21:16N 28°57' W 095°20'0 0.0
2018-Jul-12 20:57N 28°57' W 095°20'0 0.0
2018-Jul-12 20:30N 28°57' W 095°20'0 0.0
2018-Jul-12 20:00N 28°57' W 095°20'0 0.0
2018-Jul-12 19:29N 28°57' W 095°20'0 0.0
2018-Jul-12 18:59N 28°57' W 095°20'0 0.0
2018-Jul-12 18:30N 28°57' W 095°20'0 0.0
2018-Jul-12 17:54N 28°57' W 095°20'0 0.0
2018-Jul-12 17:30N 28°57' W 095°20'0 0.0
2018-Jul-12 17:00N 28°57' W 095°20'0 0.0
2018-Jul-12 12:26N 28°57' W 095°20'0 0.0
2018-Jul-12 11:33N 28°57' W 095°20'0 0.0
2018-Jul-12 11:28N 28°57' W 095°20'0 0.0
2018-Jul-12 11:00N 28°57' W 095°20'0 0.0
2018-Jul-12 10:30N 28°57' W 095°20'0 0.0
2018-Jul-11 12:08N 28°57' W 095°20'0 0.0
2018-Jul-11 11:54N 28°57' W 095°20'1 1.8
2018-Jul-11 11:28N 28°56' W 095°20'2 0.1
2018-Jul-10 22:01N 28°56' W 095°18'0 6.9
2018-Jul-10 21:59N 28°56' W 095°18'0 0.1
2018-Jul-10 19:24N 28°56' W 095°18'0 0.1
2018-Jul-10 17:25N 28°56' W 095°18'0 0.4
2018-Jul-10 16:59N 28°56' W 095°18'0 0.0
2018-Jul-10 14:50N 28°56' W 095°19'0 0.1
2018-Jul-10 13:23N 28°56' W 095°19'0 0.0
2018-Jul-10 13:00N 28°56' W 095°19'0 0.0
2018-Jul-10 12:23N 28°56' W 095°19'0 0.1
2018-Jul-10 11:26N 28°56' W 095°19'0 0.0
2018-Jul-10 10:58N 28°56' W 095°19'0 0.0
2018-Jul-10 09:34N 28°56' W 095°19'0 0.0
2018-Jul-10 09:26N 28°56' W 095°19'0 0.0
2018-Jul-10 06:01N 28°56' W 095°19'1 0.1
2018-Jul-09 22:26N 28°56' W 095°18'1 0.1
2018-Jul-09 17:42N 28°56' W 095°18'0 0.0
2018-Jul-09 15:19N 28°56' W 095°18'0 0.0
2018-Jul-09 14:34N 28°56' W 095°18'0 0.0
2018-Jul-09 14:30N 28°56' W 095°18'0 0.0
2018-Jul-09 08:06N 28°56' W 095°19'0 0.0
2018-Jul-09 07:41N 28°56' W 095°18'0 0.0
2018-Jul-08 23:10N 28°56' W 095°18'1 5.8
2018-Jul-08 22:56N 28°56' W 095°17'1 0.0
2018-Jul-07 21:54N 28°56' W 095°18'2 3.9
2018-Jul-07 21:25N 28°55' W 095°17'3 0.3
2018-Jul-07 10:48N 28°57' W 095°20'0 0.0
2018-Jul-06 15:37N 28°57' W 095°20'0 0.4
2018-Jul-06 15:30N 28°57' W 095°20'0 0.0
2018-Jul-06 15:00N 28°57' W 095°20'0 0.0
2018-Jul-06 14:30N 28°57' W 095°20'0 0.0
2018-Jul-06 14:00N 28°57' W 095°20'0 0.0
2018-Jul-06 13:30N 28°57' W 095°20'0 0.0
2018-Jul-06 13:00N 28°57' W 095°20'0 0.0
2018-Jul-06 12:30N 28°57' W 095°20'0 0.0
2018-Jul-06 12:00N 28°57' W 095°20'0 0.0
2018-Jul-06 11:30N 28°57' W 095°20'0 0.0
2018-Jul-06 11:00N 28°57' W 095°20'0 0.0
2018-Jul-06 10:30N 28°57' W 095°20'0 0.0
2018-Jul-06 10:00N 28°57' W 095°20'0 0.0
2018-Jul-06 09:30N 28°57' W 095°20'0 0.0
2018-Jul-06 09:00N 28°57' W 095°20'0 0.0
2018-Jul-06 08:30N 28°57' W 095°20'0 0.0
2018-Jul-06 08:00N 28°57' W 095°20'0 0.0
2018-Jul-06 07:30N 28°57' W 095°20'0 0.0
2018-Jul-06 07:00N 28°57' W 095°20'0 0.0
2018-Jul-06 06:30N 28°57' W 095°20'0 0.0
2018-Jul-06 06:00N 28°57' W 095°20'0 0.0
2018-Jul-06 05:30N 28°57' W 095°20'0 0.0
2018-Jul-06 05:00N 28°57' W 095°20'0 0.0
2018-Jul-06 04:30N 28°57' W 095°20'0 0.0
2018-Jul-06 04:00N 28°57' W 095°20'0 0.0
2018-Jul-06 03:30N 28°57' W 095°20'0 0.0
2018-Jul-06 03:00N 28°57' W 095°20'0 0.0
2018-Jul-06 02:30N 28°57' W 095°20'0 0.0
2018-Jul-06 02:00N 28°57' W 095°20'0 0.0
2018-Jul-06 01:29N 28°57' W 095°20'0 0.0
2018-Jul-06 00:59N 28°57' W 095°20'  

Dump ship's entire track history